createdAt,value
2023-04-18T00:00:55.441Z,431.00
2023-04-18T00:01:55.510Z,400.00
2023-04-18T00:02:55.757Z,400.00
2023-04-18T00:03:55.687Z,400.00
2023-04-18T00:04:55.580Z,400.00
2023-04-18T00:05:55.569Z,409.00
2023-04-18T00:06:56.526Z,431.00
2023-04-18T00:07:55.611Z,458.00
2023-04-18T00:08:55.686Z,493.00
2023-04-18T00:09:55.677Z,502.00
2023-04-18T00:10:55.725Z,502.00
2023-04-18T00:11:55.735Z,502.00
2023-04-18T00:12:55.763Z,504.00
2023-04-18T00:13:54.788Z,499.00
2023-04-18T00:14:55.830Z,500.00
2023-04-18T00:15:55.860Z,500.00
2023-04-18T00:16:55.954Z,500.00
2023-04-18T00:17:55.958Z,500.00
2023-04-18T00:18:55.955Z,502.00
2023-04-18T00:19:55.990Z,501.00
2023-04-18T00:20:56.018Z,500.00
2023-04-18T00:21:56.049Z,501.00
2023-04-18T00:22:56.070Z,501.00
2023-04-18T00:23:56.111Z,501.00
2023-04-18T00:24:56.157Z,504.00
2023-04-18T00:25:56.181Z,502.00
2023-04-18T00:26:56.234Z,502.00
2023-04-18T00:27:56.242Z,500.00
2023-04-18T00:28:56.268Z,504.00
2023-04-18T00:29:56.315Z,503.00
2023-04-18T00:30:56.377Z,500.00
2023-04-18T00:31:56.359Z,501.00
2023-04-18T00:32:56.447Z,502.00
2023-04-18T00:33:56.420Z,504.00
2023-04-18T00:34:56.449Z,500.00
2023-04-18T00:35:56.461Z,501.00
2023-04-18T00:36:56.498Z,501.00
2023-04-18T00:37:56.523Z,503.00
2023-04-18T00:38:56.556Z,503.00
2023-04-18T00:39:57.294Z,500.00
2023-04-18T00:40:56.613Z,507.00
2023-04-18T00:41:56.648Z,500.00
2023-04-18T00:42:56.700Z,505.00
2023-04-18T00:43:56.709Z,504.00
2023-04-18T00:44:56.746Z,503.00
2023-04-18T00:45:56.808Z,500.00
2023-04-18T00:46:56.814Z,505.00
2023-04-18T00:47:56.884Z,503.00
2023-04-18T00:48:56.886Z,501.00
2023-04-18T00:49:56.918Z,503.00
2023-04-18T00:50:56.960Z,502.00
2023-04-18T00:51:57.014Z,506.00
2023-04-18T00:52:57.030Z,507.00
2023-04-18T00:53:57.109Z,504.00
2023-04-18T00:54:57.097Z,500.00
2023-04-18T00:55:57.124Z,505.00
2023-04-18T00:56:57.145Z,504.00
2023-04-18T00:57:57.176Z,503.00
2023-04-18T00:58:57.231Z,502.00
2023-04-18T00:59:57.256Z,502.00
2023-04-18T01:00:57.273Z,503.00
2023-04-18T01:01:57.363Z,505.00
2023-04-18T01:02:57.401Z,503.00
2023-04-18T01:03:57.502Z,501.00
2023-04-18T01:04:57.421Z,500.00
2023-04-18T01:05:57.494Z,507.00
2023-04-18T01:06:57.836Z,501.00
2023-04-18T01:07:57.516Z,502.00
2023-04-18T01:08:57.547Z,500.00
2023-04-18T01:09:57.583Z,501.00
2023-04-18T01:10:57.607Z,502.00
2023-04-18T01:11:57.649Z,510.00
2023-04-18T01:12:57.677Z,503.00
2023-04-18T01:13:57.700Z,504.00
2023-04-18T01:14:57.756Z,506.00
2023-04-18T01:15:57.795Z,510.00
2023-04-18T01:16:57.796Z,502.00
2023-04-18T01:17:57.864Z,504.00
2023-04-18T01:18:57.867Z,505.00
2023-04-18T01:19:57.908Z,506.00
2023-04-18T01:20:57.931Z,505.00
2023-04-18T01:21:57.974Z,504.00
2023-04-18T01:22:58.004Z,505.00
2023-04-18T01:23:58.032Z,503.00
2023-04-18T01:24:58.081Z,503.00
2023-04-18T01:25:58.103Z,502.00
2023-04-18T01:26:58.153Z,500.00
2023-04-18T01:27:58.185Z,506.00
2023-04-18T01:28:58.230Z,504.00
2023-04-18T01:29:58.240Z,505.00
2023-04-18T01:30:58.343Z,503.00
2023-04-18T01:31:58.305Z,508.00
2023-04-18T01:32:58.371Z,506.00
2023-04-18T01:33:58.367Z,505.00
2023-04-18T01:34:58.418Z,501.00
2023-04-18T01:35:58.444Z,501.00
2023-04-18T01:36:58.478Z,503.00
2023-04-18T01:37:58.526Z,502.00
2023-04-18T01:38:58.548Z,502.00
2023-04-18T01:39:58.584Z,500.00
2023-04-18T01:40:58.638Z,502.00
2023-04-18T01:41:58.650Z,503.00
2023-04-18T01:42:58.679Z,504.00
2023-04-18T01:43:57.716Z,503.00
2023-04-18T01:44:58.752Z,505.00
2023-04-18T01:45:58.793Z,504.00
2023-04-18T01:46:58.930Z,503.00
2023-04-18T01:47:58.876Z,505.00
2023-04-18T01:48:58.876Z,502.00
2023-04-18T01:49:58.961Z,501.00
2023-04-18T01:50:58.961Z,505.00
2023-04-18T01:51:58.979Z,500.00
2023-04-18T01:52:59.008Z,506.00
2023-04-18T01:53:59.065Z,501.00
2023-04-18T01:54:59.080Z,503.00
2023-04-18T01:55:59.108Z,506.00
2023-04-18T01:56:59.138Z,502.00
2023-04-18T01:57:59.175Z,504.00
2023-04-18T01:58:59.204Z,505.00
2023-04-18T01:59:59.240Z,504.00
2023-04-18T02:00:59.324Z,504.00
2023-04-18T02:01:59.441Z,503.00
2023-04-18T02:02:59.571Z,506.00
2023-04-18T02:03:59.409Z,506.00
2023-04-18T02:04:59.406Z,503.00
2023-04-18T02:05:59.442Z,506.00
2023-04-18T02:06:59.469Z,501.00
2023-04-18T02:07:59.493Z,507.00
2023-04-18T02:08:59.519Z,502.00
2023-04-18T02:09:59.584Z,504.00
2023-04-18T02:10:59.582Z,505.00
2023-04-18T02:11:59.655Z,505.00
2023-04-18T02:12:59.647Z,506.00
2023-04-18T02:13:59.738Z,503.00
2023-04-18T02:14:59.710Z,505.00
2023-04-18T02:15:59.819Z,502.00
2023-04-18T02:16:59.774Z,506.00
2023-04-18T02:17:59.824Z,502.00
2023-04-18T02:18:59.855Z,506.00
2023-04-18T02:19:59.862Z,504.00
2023-04-18T02:21:00.783Z,504.00
2023-04-18T02:21:59.919Z,504.00
2023-04-18T02:22:59.954Z,508.00
2023-04-18T02:23:59.979Z,505.00
2023-04-18T02:25:00.018Z,505.00
2023-04-18T02:26:00.057Z,509.00
2023-04-18T02:27:00.113Z,505.00
2023-04-18T02:28:00.138Z,505.00
2023-04-18T02:29:00.149Z,504.00
2023-04-18T02:30:00.216Z,504.00
2023-04-18T02:31:00.361Z,503.00
2023-04-18T02:32:00.351Z,506.00
2023-04-18T02:33:00.316Z,504.00
2023-04-18T02:34:00.303Z,505.00
2023-04-18T02:35:00.392Z,503.00
2023-04-18T02:36:00.377Z,502.00
2023-04-18T02:37:00.440Z,503.00
2023-04-18T02:38:00.447Z,508.00
2023-04-18T02:39:00.473Z,504.00
2023-04-18T02:40:00.509Z,501.00
2023-04-18T02:41:00.556Z,506.00
2023-04-18T02:42:00.572Z,500.00
2023-04-18T02:43:00.609Z,500.00
2023-04-18T02:44:00.643Z,509.00
2023-04-18T02:45:00.679Z,506.00
2023-04-18T02:46:00.800Z,505.00
2023-04-18T02:47:00.756Z,504.00
2023-04-18T02:48:00.804Z,506.00
2023-04-18T02:49:00.813Z,503.00
2023-04-18T02:50:00.851Z,504.00
2023-04-18T02:51:00.978Z,506.00
2023-04-18T02:52:00.927Z,502.00
2023-04-18T02:53:00.954Z,502.00
2023-04-18T02:54:00.986Z,504.00
2023-04-18T02:55:01.013Z,506.00
2023-04-18T02:56:01.066Z,507.00
2023-04-18T02:57:01.073Z,504.00
2023-04-18T02:58:01.118Z,505.00
2023-04-18T02:59:01.151Z,507.00
2023-04-18T03:00:01.180Z,504.00
2023-04-18T03:01:01.223Z,504.00
2023-04-18T03:02:01.321Z,505.00
2023-04-18T03:03:01.587Z,504.00
2023-04-18T03:04:01.317Z,504.00
2023-04-18T03:05:01.409Z,505.00
2023-04-18T03:06:01.374Z,505.00
2023-04-18T03:07:01.467Z,505.00
2023-04-18T03:08:01.451Z,508.00
2023-04-18T03:09:01.483Z,506.00
2023-04-18T03:10:01.572Z,510.00
2023-04-18T03:11:01.548Z,508.00
2023-04-18T03:12:01.574Z,508.00
2023-04-18T03:13:01.615Z,504.00
2023-04-18T03:14:01.654Z,505.00
2023-04-18T03:15:01.681Z,509.00
2023-04-18T03:16:01.752Z,504.00
2023-04-18T03:17:01.759Z,506.00
2023-04-18T03:18:02.070Z,507.00
2023-04-18T03:19:01.830Z,503.00
2023-04-18T03:20:01.893Z,504.00
2023-04-18T03:21:01.968Z,503.00
2023-04-18T03:22:02.039Z,503.00
2023-04-18T03:23:02.009Z,502.00
2023-04-18T03:24:02.016Z,504.00
2023-04-18T03:25:02.059Z,505.00
2023-04-18T03:26:02.120Z,505.00
2023-04-18T03:27:02.125Z,504.00
2023-04-18T03:28:02.152Z,500.00
2023-04-18T03:29:02.199Z,502.00
2023-04-18T03:30:02.210Z,502.00
2023-04-18T03:31:02.298Z,503.00
2023-04-18T03:32:02.271Z,506.00
2023-04-18T03:33:02.304Z,503.00
2023-04-18T03:34:02.330Z,503.00
2023-04-18T03:35:02.359Z,504.00
2023-04-18T03:36:02.376Z,501.00
2023-04-18T03:37:02.393Z,501.00
2023-04-18T03:38:03.243Z,501.00
2023-04-18T03:39:02.479Z,503.00
2023-04-18T03:40:02.492Z,501.00
2023-04-18T03:41:02.487Z,507.00
2023-04-18T03:42:02.506Z,501.00
2023-04-18T03:43:02.562Z,500.00
2023-04-18T03:44:02.543Z,500.00
2023-04-18T03:45:02.552Z,503.00
2023-04-18T03:46:02.604Z,502.00
2023-04-18T03:47:02.587Z,501.00
2023-04-18T03:48:02.621Z,504.00
2023-04-18T03:49:02.748Z,506.00
2023-04-18T03:50:02.636Z,503.00
2023-04-18T03:51:02.717Z,505.00
2023-04-18T03:52:02.643Z,505.00
2023-04-18T03:53:02.653Z,501.00
2023-04-18T03:54:02.667Z,506.00
2023-04-18T03:55:02.715Z,501.00
2023-04-18T03:56:02.682Z,507.00
2023-04-18T03:57:02.699Z,503.00
2023-04-18T03:58:02.726Z,507.00
2023-04-18T03:59:02.745Z,505.00
2023-04-18T04:00:02.720Z,506.00
2023-04-18T04:01:02.734Z,507.00
2023-04-18T04:02:02.790Z,501.00
2023-04-18T04:03:02.913Z,504.00
2023-04-18T04:04:02.852Z,506.00
2023-04-18T04:05:02.834Z,504.00
2023-04-18T04:06:02.737Z,506.00
2023-04-18T04:07:02.744Z,501.00
2023-04-18T04:08:02.746Z,504.00
2023-04-18T04:09:02.756Z,505.00
2023-04-18T04:10:02.789Z,502.00
2023-04-18T04:11:02.905Z,507.00
2023-04-18T04:12:02.778Z,501.00
2023-04-18T04:13:02.786Z,505.00
2023-04-18T04:14:02.792Z,506.00
2023-04-18T04:15:02.792Z,501.00
2023-04-18T04:16:02.833Z,504.00
2023-04-18T04:17:02.808Z,505.00
2023-04-18T04:18:02.873Z,504.00
2023-04-18T04:19:02.826Z,502.00
2023-04-18T04:20:02.824Z,504.00
2023-04-18T04:21:02.836Z,505.00
2023-04-18T04:22:02.829Z,501.00
2023-04-18T04:23:02.845Z,504.00
2023-04-18T04:24:02.834Z,504.00
2023-04-18T04:25:02.840Z,501.00
2023-04-18T04:26:02.845Z,507.00
2023-04-18T04:27:02.872Z,505.00
2023-04-18T04:28:02.893Z,506.00
2023-04-18T04:29:02.860Z,503.00
2023-04-18T04:30:02.865Z,506.00
2023-04-18T04:31:02.878Z,504.00
2023-04-18T04:32:02.912Z,503.00
2023-04-18T04:33:02.953Z,502.00
2023-04-18T04:34:02.854Z,506.00
2023-04-18T04:35:02.870Z,507.00
2023-04-18T04:36:02.857Z,505.00
2023-04-18T04:37:02.850Z,505.00
2023-04-18T04:38:02.850Z,507.00
2023-04-18T04:39:02.846Z,503.00
2023-04-18T04:40:02.887Z,505.00
2023-04-18T04:41:02.849Z,505.00
2023-04-18T04:42:02.844Z,506.00
2023-04-18T04:43:02.939Z,503.00
2023-04-18T04:44:02.837Z,506.00
2023-04-18T04:45:02.878Z,507.00
2023-04-18T04:46:02.917Z,505.00
2023-04-18T04:47:02.841Z,504.00
2023-04-18T04:48:02.894Z,506.00
2023-04-18T04:49:02.837Z,504.00
2023-04-18T04:50:02.833Z,506.00
2023-04-18T04:51:02.834Z,505.00
2023-04-18T04:52:03.052Z,504.00
2023-04-18T04:53:02.860Z,505.00
2023-04-18T04:54:02.828Z,506.00
2023-04-18T04:55:02.828Z,506.00
2023-04-18T04:56:02.826Z,508.00
2023-04-18T04:57:02.813Z,502.00
2023-04-18T04:58:02.809Z,504.00
2023-04-18T04:59:02.883Z,507.00
2023-04-18T05:00:02.809Z,506.00
2023-04-18T05:01:02.834Z,508.00
2023-04-18T05:02:02.923Z,505.00
2023-04-18T05:03:03.060Z,509.00
2023-04-18T05:04:02.975Z,504.00
2023-04-18T05:05:02.820Z,507.00
2023-04-18T05:06:02.795Z,506.00
2023-04-18T05:07:02.786Z,502.00
2023-04-18T05:08:02.798Z,507.00
2023-04-18T05:09:02.774Z,501.00
2023-04-18T05:10:02.781Z,505.00
2023-04-18T05:11:02.770Z,504.00
2023-04-18T05:12:03.278Z,501.00
2023-04-18T05:13:02.776Z,500.00
2023-04-18T05:14:02.782Z,501.00
2023-04-18T05:15:02.829Z,500.00
2023-04-18T05:16:02.813Z,500.00
2023-04-18T05:17:02.921Z,502.00
2023-04-18T05:18:03.407Z,500.00
2023-04-18T05:19:02.819Z,500.00
2023-04-18T05:20:02.848Z,502.00
2023-04-18T05:21:02.852Z,500.00
2023-04-18T05:22:02.843Z,505.00
2023-04-18T05:23:02.881Z,504.00
2023-04-18T05:24:02.867Z,505.00
2023-04-18T05:25:02.885Z,502.00
2023-04-18T05:26:03.292Z,500.00
2023-04-18T05:27:02.873Z,503.00
2023-04-18T05:28:02.871Z,503.00
2023-04-18T05:29:02.884Z,503.00
2023-04-18T05:30:02.904Z,506.00
2023-04-18T05:31:03.455Z,500.00
2023-04-18T05:32:02.908Z,502.00
2023-04-18T05:33:02.956Z,506.00
2023-04-18T05:34:02.933Z,500.00
2023-04-18T05:35:02.927Z,500.00
2023-04-18T05:36:03.288Z,503.00
2023-04-18T05:37:02.932Z,506.00
2023-04-18T05:38:03.300Z,501.00
2023-04-18T05:39:02.940Z,501.00
2023-04-18T05:40:03.333Z,504.00
2023-04-18T05:41:02.955Z,508.00
2023-04-18T05:42:02.965Z,509.00
2023-04-18T05:43:03.534Z,502.00
2023-04-18T05:44:05.781Z,502.00
2023-04-18T05:45:02.986Z,502.00
2023-04-18T05:46:02.989Z,503.00
2023-04-18T05:47:02.961Z,503.00
2023-04-18T05:48:04.041Z,502.00
2023-04-18T05:49:03.309Z,512.00
2023-04-18T05:50:03.302Z,510.00
2023-04-18T05:51:02.892Z,510.00
2023-04-18T05:52:02.888Z,512.00
2023-04-18T05:53:02.860Z,517.00
2023-04-18T05:54:03.331Z,526.00
2023-04-18T05:55:03.373Z,536.00
2023-04-18T05:56:03.429Z,549.00
2023-04-18T05:57:04.374Z,556.00
2023-04-18T05:58:02.795Z,573.00
2023-04-18T05:59:05.963Z,593.00
2023-04-18T06:00:02.823Z,594.00
2023-04-18T06:01:02.709Z,599.00
2023-04-18T06:02:02.697Z,605.00
2023-04-18T06:03:02.998Z,621.00
2023-04-18T06:04:02.869Z,649.00
2023-04-18T06:05:02.767Z,652.00
2023-04-18T06:06:02.745Z,656.00
2023-04-18T06:07:02.555Z,659.00
2023-04-18T06:08:03.849Z,673.00
2023-04-18T06:09:02.512Z,699.00
2023-04-18T06:10:02.804Z,721.00
2023-04-18T06:11:02.482Z,714.00
2023-04-18T06:12:02.449Z,735.00
2023-04-18T06:13:02.821Z,744.00
2023-04-18T06:14:03.112Z,758.00
2023-04-18T06:15:03.336Z,763.00
2023-04-18T06:16:03.047Z,762.00
2023-04-18T06:17:02.848Z,770.00
2023-04-18T06:18:03.154Z,788.00
2023-04-18T06:19:03.200Z,773.00
2023-04-18T06:20:03.377Z,772.00
2023-04-18T06:21:03.230Z,760.00
2023-04-18T06:22:03.313Z,746.00
2023-04-18T06:23:03.340Z,752.00
2023-04-18T06:24:03.317Z,753.00
2023-04-18T06:25:03.415Z,749.00
2023-04-18T06:26:03.818Z,747.00
2023-04-18T06:27:03.205Z,739.00
2023-04-18T06:28:03.158Z,740.00
2023-04-18T06:29:03.289Z,748.00
2023-04-18T06:30:03.571Z,743.00
2023-04-18T06:31:03.407Z,761.00
2023-04-18T06:32:03.671Z,771.00
2023-04-18T06:33:03.644Z,773.00
2023-04-18T06:34:03.685Z,777.00
2023-04-18T06:35:03.345Z,774.00
2023-04-18T06:36:03.261Z,785.00
2023-04-18T06:37:03.309Z,775.00
2023-04-18T06:38:03.312Z,768.00
2023-04-18T06:39:03.893Z,776.00
2023-04-18T06:40:03.389Z,768.00
2023-04-18T06:41:03.442Z,789.00
2023-04-18T06:42:03.473Z,946.00
2023-04-18T06:43:03.488Z,947.00
2023-04-18T06:44:04.701Z,942.00
2023-04-18T06:45:03.571Z,931.00
2023-04-18T06:46:03.651Z,909.00
2023-04-18T06:47:03.836Z,880.00
2023-04-18T06:48:03.890Z,870.00
2023-04-18T06:49:03.714Z,847.00
2023-04-18T06:50:03.824Z,829.00
2023-04-18T06:51:03.850Z,810.00
2023-04-18T06:52:03.797Z,792.00
2023-04-18T06:53:03.832Z,792.00
2023-04-18T06:54:03.850Z,781.00
2023-04-18T06:55:04.326Z,748.00
2023-04-18T06:56:03.896Z,744.00
2023-04-18T06:57:03.918Z,719.00
2023-04-18T06:58:03.965Z,724.00
2023-04-18T06:59:04.319Z,715.00
2023-04-18T07:00:04.007Z,709.00
2023-04-18T07:01:04.364Z,713.00
2023-04-18T07:02:04.081Z,716.00
2023-04-18T07:03:04.327Z,700.00
2023-04-18T07:04:04.394Z,685.00
2023-04-18T07:05:04.057Z,669.00
2023-04-18T07:06:04.864Z,658.00
2023-04-18T07:07:04.116Z,657.00
2023-04-18T07:08:04.050Z,650.00
2023-04-18T07:09:04.047Z,658.00
2023-04-18T07:10:04.041Z,658.00
2023-04-18T07:11:04.033Z,666.00
2023-04-18T07:12:05.013Z,663.00
2023-04-18T07:13:04.013Z,658.00
2023-04-18T07:14:04.323Z,664.00
2023-04-18T07:15:04.017Z,658.00
2023-04-18T07:16:03.988Z,654.00
2023-04-18T07:17:04.031Z,651.00
2023-04-18T07:18:04.043Z,648.00
2023-04-18T07:19:03.975Z,651.00
2023-04-18T07:20:03.959Z,646.00
2023-04-18T07:21:03.969Z,651.00
2023-04-18T07:22:03.944Z,649.00
2023-04-18T07:23:04.164Z,648.00
2023-04-18T07:24:04.336Z,648.00
2023-04-18T07:25:03.896Z,647.00
2023-04-18T07:26:03.888Z,650.00
2023-04-18T07:27:03.902Z,648.00
2023-04-18T07:28:04.365Z,651.00
2023-04-18T07:29:04.336Z,651.00
2023-04-18T07:30:03.825Z,652.00
2023-04-18T07:31:03.885Z,644.00
2023-04-18T07:32:04.481Z,637.00
2023-04-18T07:33:03.924Z,638.00
2023-04-18T07:34:03.936Z,642.00
2023-04-18T07:35:03.749Z,641.00
2023-04-18T07:36:03.733Z,636.00
2023-04-18T07:37:03.727Z,635.00
2023-04-18T07:38:03.694Z,629.00
2023-04-18T07:39:04.231Z,632.00
2023-04-18T07:40:03.741Z,620.00
2023-04-18T07:41:03.652Z,622.00
2023-04-18T07:42:03.649Z,624.00
2023-04-18T07:43:03.601Z,615.00
2023-04-18T07:44:03.843Z,610.00
2023-04-18T07:45:03.579Z,612.00
2023-04-18T07:46:03.588Z,606.00
2023-04-18T07:47:03.555Z,602.00
2023-04-18T07:48:03.610Z,617.00
2023-04-18T07:49:03.852Z,600.00
2023-04-18T07:50:03.534Z,614.00
2023-04-18T07:51:03.880Z,619.00
2023-04-18T07:52:03.517Z,615.00
2023-04-18T07:53:03.514Z,590.00
2023-04-18T07:54:03.893Z,583.00
2023-04-18T07:55:03.649Z,588.00
2023-04-18T07:56:03.838Z,598.00
2023-04-18T07:57:03.492Z,593.00
2023-04-18T07:58:03.492Z,580.00
2023-04-18T07:59:03.479Z,582.00
2023-04-18T08:00:03.492Z,571.00
2023-04-18T08:01:02.845Z,566.00
2023-04-18T08:02:03.471Z,571.00
2023-04-18T08:03:03.638Z,564.00
2023-04-18T08:04:03.462Z,561.00
2023-04-18T08:05:03.553Z,557.00
2023-04-18T08:06:03.378Z,549.00
2023-04-18T08:07:03.262Z,545.00
2023-04-18T08:08:03.221Z,545.00
2023-04-18T08:09:03.393Z,542.00
2023-04-18T08:10:03.152Z,547.00
2023-04-18T08:11:03.176Z,531.00
2023-04-18T08:12:03.166Z,527.00
2023-04-18T08:13:03.066Z,533.00
2023-04-18T08:14:03.361Z,533.00
2023-04-18T08:15:03.024Z,530.00
2023-04-18T08:16:03.434Z,524.00
2023-04-18T08:17:03.462Z,516.00
2023-04-18T08:18:02.949Z,514.00
2023-04-18T08:19:02.894Z,515.00
2023-04-18T08:20:03.352Z,510.00
2023-04-18T08:21:02.856Z,515.00
2023-04-18T08:22:02.796Z,509.00
2023-04-18T08:23:08.499Z,513.00
2023-04-18T08:24:02.750Z,514.00
2023-04-18T08:25:05.153Z,514.00
2023-04-18T08:26:02.852Z,514.00
2023-04-18T08:27:03.126Z,506.00
2023-04-18T08:28:02.674Z,509.00
2023-04-18T08:29:02.588Z,503.00
2023-04-18T08:30:03.315Z,494.00
2023-04-18T08:31:02.531Z,503.00
2023-04-18T08:32:02.591Z,522.00
2023-04-18T08:33:02.531Z,530.00
2023-04-18T08:34:04.429Z,531.00
2023-04-18T08:35:02.979Z,538.00
2023-04-18T08:36:02.373Z,550.00
2023-04-18T08:37:02.420Z,552.00
2023-04-18T08:38:02.313Z,545.00
2023-04-18T08:39:02.460Z,549.00
2023-04-18T08:40:02.368Z,551.00
2023-04-18T08:41:02.200Z,559.00
2023-04-18T08:42:02.168Z,550.00
2023-04-18T08:43:02.168Z,544.00
2023-04-18T08:44:02.424Z,531.00
2023-04-18T08:45:02.364Z,547.00
2023-04-18T08:46:02.205Z,544.00
2023-04-18T08:47:02.073Z,541.00
2023-04-18T08:48:02.017Z,546.00
2023-04-18T08:49:01.942Z,551.00
2023-04-18T08:50:02.414Z,565.00
2023-04-18T08:51:01.851Z,570.00
2023-04-18T08:52:01.812Z,558.00
2023-04-18T08:53:01.850Z,557.00
2023-04-18T08:54:01.885Z,558.00
2023-04-18T08:55:01.798Z,561.00
2023-04-18T08:56:01.726Z,558.00
2023-04-18T08:57:01.627Z,554.00
2023-04-18T08:58:01.604Z,551.00
2023-04-18T08:59:02.038Z,558.00
2023-04-18T09:00:01.529Z,554.00
2023-04-18T09:01:01.559Z,559.00
2023-04-18T09:02:01.592Z,576.00
2023-04-18T09:03:01.991Z,600.00
2023-04-18T09:04:01.509Z,629.00
2023-04-18T09:05:01.327Z,664.00
2023-04-18T09:06:01.299Z,701.00
2023-04-18T09:07:01.268Z,712.00
2023-04-18T09:08:01.366Z,725.00
2023-04-18T09:09:01.188Z,735.00
2023-04-18T09:10:01.157Z,726.00
2023-04-18T09:11:01.128Z,714.00
2023-04-18T09:12:01.124Z,686.00
2023-04-18T09:13:01.367Z,674.00
2023-04-18T09:14:01.147Z,715.00
2023-04-18T09:15:01.318Z,711.00
2023-04-18T09:16:01.179Z,730.00
2023-04-18T09:17:01.258Z,726.00
2023-04-18T09:18:01.392Z,674.00
2023-04-18T09:19:01.224Z,665.00
2023-04-18T09:20:01.243Z,668.00
2023-04-18T09:21:01.398Z,681.00
2023-04-18T09:22:01.372Z,705.00
2023-04-18T09:23:01.279Z,704.00
2023-04-18T09:24:01.315Z,698.00
2023-04-18T09:25:01.438Z,681.00
2023-04-18T09:26:01.456Z,682.00
2023-04-18T09:27:01.386Z,679.00
2023-04-18T09:28:01.985Z,683.00
2023-04-18T09:29:01.431Z,648.00
2023-04-18T09:30:01.439Z,624.00
2023-04-18T09:31:01.522Z,613.00
2023-04-18T09:32:01.903Z,619.00
2023-04-18T09:33:03.158Z,602.00
2023-04-18T09:34:01.687Z,559.00
2023-04-18T09:35:03.957Z,519.00
2023-04-18T09:36:01.937Z,499.00
2023-04-18T09:37:01.731Z,498.00
2023-04-18T09:38:01.652Z,497.00
2023-04-18T09:39:01.633Z,500.00
2023-04-18T09:40:01.605Z,500.00
2023-04-18T09:41:01.900Z,500.00
2023-04-18T09:42:01.601Z,500.00
2023-04-18T09:43:01.548Z,505.00
2023-04-18T09:44:01.529Z,510.00
2023-04-18T09:45:01.521Z,503.00
2023-04-18T09:46:02.038Z,500.00
2023-04-18T09:47:01.985Z,500.00
2023-04-18T09:48:01.491Z,503.00
2023-04-18T09:49:01.462Z,500.00
2023-04-18T09:50:01.379Z,490.00
2023-04-18T09:51:01.475Z,517.00
2023-04-18T09:52:01.396Z,540.00
2023-04-18T09:53:01.310Z,571.00
2023-04-18T09:54:01.299Z,619.00
2023-04-18T09:55:01.235Z,621.00
2023-04-18T09:56:01.389Z,649.00
2023-04-18T09:57:01.218Z,630.00
2023-04-18T09:58:01.170Z,664.00
2023-04-18T09:59:01.142Z,620.00
2023-04-18T10:00:01.112Z,581.00
2023-04-18T10:01:01.390Z,596.00
2023-04-18T10:02:01.165Z,583.00
2023-04-18T10:03:01.284Z,584.00
2023-04-18T10:04:01.269Z,574.00
2023-04-18T10:05:01.085Z,601.00
2023-04-18T10:06:01.398Z,625.00
2023-04-18T10:07:00.960Z,635.00
2023-04-18T10:08:01.049Z,644.00
2023-04-18T10:09:00.894Z,669.00
2023-04-18T10:10:00.873Z,668.00
2023-04-18T10:11:00.939Z,665.00
2023-04-18T10:12:00.836Z,650.00
2023-04-18T10:13:00.814Z,586.00
2023-04-18T10:14:00.765Z,615.00
2023-04-18T10:15:00.886Z,606.00
2023-04-18T10:16:00.803Z,582.00
2023-04-18T10:17:00.911Z,601.00
2023-04-18T10:18:05.042Z,594.00
2023-04-18T10:19:00.840Z,596.00
2023-04-18T10:20:00.664Z,601.00
2023-04-18T10:21:00.653Z,612.00
2023-04-18T10:22:00.628Z,639.00
2023-04-18T10:23:00.925Z,635.00
2023-04-18T10:24:00.579Z,687.00
2023-04-18T10:25:00.902Z,663.00
2023-04-18T10:26:00.512Z,664.00
2023-04-18T10:27:01.073Z,765.00
2023-04-18T10:28:00.485Z,813.00
2023-04-18T10:29:00.903Z,782.00
2023-04-18T10:30:00.441Z,712.00
2023-04-18T10:31:00.438Z,641.00
2023-04-18T10:32:00.507Z,601.00
2023-04-18T10:33:00.405Z,551.00
2023-04-18T10:34:04.759Z,509.00
2023-04-18T10:35:00.520Z,458.00
2023-04-18T10:36:00.336Z,415.00
2023-04-18T10:37:00.429Z,400.00
2023-04-18T10:38:00.356Z,400.00
2023-04-18T10:39:00.342Z,400.00
2023-04-18T10:40:02.022Z,400.00
2023-04-18T10:41:00.809Z,400.00
2023-04-18T10:42:00.897Z,400.00
2023-04-18T10:43:00.906Z,409.00
2023-04-18T10:44:00.696Z,472.00
2023-04-18T10:45:00.745Z,506.00
2023-04-18T10:46:00.775Z,517.00
2023-04-18T10:47:00.834Z,511.00
2023-04-18T10:48:01.453Z,500.00
2023-04-18T10:49:00.855Z,508.00
2023-04-18T10:50:01.068Z,498.00
2023-04-18T10:51:01.039Z,500.00
2023-04-18T10:52:01.503Z,499.00
2023-04-18T10:53:00.940Z,500.00
2023-04-18T10:54:00.933Z,500.00
2023-04-18T10:55:00.941Z,503.00
2023-04-18T10:56:01.437Z,500.00
2023-04-18T10:57:01.277Z,500.00
2023-04-18T10:58:01.436Z,542.00
2023-04-18T10:59:00.988Z,508.00
2023-04-18T11:00:01.001Z,500.00
2023-04-18T11:01:01.454Z,510.00
2023-04-18T11:02:01.055Z,504.00
2023-04-18T11:03:01.185Z,525.00
2023-04-18T11:04:01.677Z,554.00
2023-04-18T11:05:01.076Z,568.00
2023-04-18T11:06:02.499Z,557.00
2023-04-18T11:07:01.088Z,547.00
2023-04-18T11:08:01.475Z,542.00
2023-04-18T11:09:01.028Z,549.00
2023-04-18T11:10:00.426Z,550.00
2023-04-18T11:11:01.445Z,549.00
2023-04-18T11:12:00.959Z,550.00
2023-04-18T11:13:00.959Z,551.00
2023-04-18T11:14:00.932Z,556.00
2023-04-18T11:15:00.915Z,589.00
2023-04-18T11:16:00.992Z,626.00
2023-04-18T11:17:02.004Z,637.00
2023-04-18T11:18:00.953Z,652.00
2023-04-18T11:19:00.843Z,665.00
2023-04-18T11:20:00.919Z,708.00
2023-04-18T11:21:00.810Z,765.00
2023-04-18T11:22:00.797Z,794.00
2023-04-18T11:23:00.818Z,832.00
2023-04-18T11:24:00.784Z,737.00
2023-04-18T11:25:00.755Z,729.00
2023-04-18T11:26:00.745Z,730.00
2023-04-18T11:27:00.922Z,764.00
2023-04-18T11:28:00.862Z,783.00
2023-04-18T11:29:00.732Z,753.00
2023-04-18T11:30:00.740Z,725.00
2023-04-18T11:31:00.842Z,743.00
2023-04-18T11:32:00.981Z,772.00
2023-04-18T11:33:00.960Z,745.00
2023-04-18T11:34:01.003Z,716.00
2023-04-18T11:35:00.789Z,692.00
2023-04-18T11:36:00.818Z,776.00
2023-04-18T11:37:00.895Z,776.00
2023-04-18T11:38:00.926Z,890.00
2023-04-18T11:39:00.957Z,890.00
2023-04-18T11:40:00.874Z,804.00
2023-04-18T11:41:00.864Z,834.00
2023-04-18T11:42:00.926Z,786.00
2023-04-18T11:43:00.924Z,731.00
2023-04-18T11:44:00.913Z,658.00
2023-04-18T11:45:00.945Z,650.00
2023-04-18T11:46:01.100Z,674.00
2023-04-18T11:47:01.522Z,649.00
2023-04-18T11:48:01.068Z,663.00
2023-04-18T11:49:01.029Z,714.00
2023-04-18T11:50:01.069Z,655.00
2023-04-18T11:51:01.110Z,685.00
2023-04-18T11:52:01.110Z,654.00
2023-04-18T11:53:01.131Z,627.00
2023-04-18T11:54:01.158Z,639.00
2023-04-18T11:55:01.282Z,645.00
2023-04-18T11:56:01.206Z,666.00
2023-04-18T11:57:01.448Z,692.00
2023-04-18T11:58:01.262Z,1049.00
2023-04-18T11:59:01.299Z,1407.00
2023-04-18T12:00:01.342Z,1562.00
2023-04-18T12:01:01.328Z,1563.00
2023-04-18T12:02:12.521Z,1481.00
2023-04-18T12:03:01.542Z,1483.00
2023-04-18T12:04:01.561Z,1488.00
2023-04-18T12:05:01.668Z,1667.00
2023-04-18T12:06:01.526Z,1769.00
2023-04-18T12:07:01.435Z,1999.00
2023-04-18T12:08:01.229Z,2018.00
2023-04-18T12:09:01.268Z,2134.00
2023-04-18T12:10:01.193Z,2055.00
2023-04-18T12:11:01.647Z,1996.00
2023-04-18T12:12:01.606Z,2089.00
2023-04-18T12:13:01.459Z,2197.00
2023-04-18T12:14:02.991Z,2179.00
2023-04-18T12:15:01.378Z,2168.00
2023-04-18T12:16:01.509Z,2118.00
2023-04-18T12:17:01.760Z,2059.00
2023-04-18T12:18:01.571Z,2034.00
2023-04-18T12:19:02.246Z,2015.00
2023-04-18T12:20:01.891Z,1990.00
2023-04-18T12:21:01.328Z,1971.00
2023-04-18T12:22:01.412Z,1920.00
2023-04-18T12:23:02.206Z,1912.00
2023-04-18T12:24:02.976Z,1892.00
2023-04-18T12:25:01.578Z,1879.00
2023-04-18T12:26:01.762Z,1874.00
2023-04-18T12:27:01.988Z,1854.00
2023-04-18T12:28:01.639Z,1816.00